createdAt,value
2018-09-28T00:00:34.114Z,15.60
2018-09-28T00:01:34.089Z,15.51
2018-09-28T00:02:34.063Z,15.48
2018-09-28T00:03:34.034Z,15.57
2018-09-28T00:04:34.005Z,15.49
2018-09-28T00:05:33.984Z,15.54
2018-09-28T00:06:33.950Z,15.51
2018-09-28T00:07:33.923Z,15.48
2018-09-28T00:08:33.895Z,15.66
2018-09-28T00:09:33.870Z,15.64
2018-09-28T00:10:33.887Z,15.66
2018-09-28T00:11:33.813Z,15.76
2018-09-28T00:12:33.785Z,15.79
2018-09-28T00:13:33.758Z,15.92
2018-09-28T00:14:33.731Z,16.00
2018-09-28T00:15:33.704Z,15.99
2018-09-28T00:16:33.676Z,16.07
2018-09-28T00:17:33.648Z,16.03
2018-09-28T00:18:33.621Z,15.97
2018-09-28T00:19:33.593Z,16.00
2018-09-28T00:20:33.568Z,16.16
2018-09-28T00:21:33.540Z,16.14
2018-09-28T00:22:33.517Z,16.14
2018-09-28T00:23:33.482Z,16.25
2018-09-28T00:24:33.456Z,16.25
2018-09-28T00:25:33.429Z,16.31
2018-09-28T00:26:33.403Z,16.38
2018-09-28T00:27:33.372Z,16.55
2018-09-28T00:28:33.345Z,16.49
2018-09-28T00:29:33.318Z,16.52
2018-09-28T00:30:33.293Z,16.63
2018-09-28T00:31:33.263Z,16.58
2018-09-28T00:32:33.236Z,16.62
2018-09-28T00:33:33.208Z,16.56
2018-09-28T00:34:33.181Z,16.63
2018-09-28T00:35:33.153Z,16.65
2018-09-28T00:36:33.125Z,16.71
2018-09-28T00:37:33.100Z,16.73
2018-09-28T00:38:33.073Z,16.73
2018-09-28T00:39:33.045Z,16.67
2018-09-28T00:40:33.018Z,16.77
2018-09-28T00:41:32.991Z,16.86
2018-09-28T00:42:32.965Z,16.80
2018-09-28T00:43:32.939Z,16.80
2018-09-28T00:44:32.911Z,16.90
2018-09-28T00:45:32.882Z,16.90
2018-09-28T00:46:32.856Z,16.88
2018-09-28T00:47:32.827Z,16.81
2018-09-28T00:48:32.804Z,16.90
2018-09-28T00:49:32.774Z,16.90
2018-09-28T00:50:32.747Z,16.85
2018-09-28T00:51:32.721Z,16.83
2018-09-28T00:52:32.695Z,16.88
2018-09-28T00:53:32.669Z,16.88
2018-09-28T00:54:32.643Z,16.90
2018-09-28T00:55:32.613Z,16.85
2018-09-28T00:56:32.586Z,16.89
2018-09-28T00:57:32.563Z,16.88
2018-09-28T00:58:32.535Z,16.88
2018-09-28T00:59:32.506Z,16.88
2018-09-28T01:00:32.479Z,16.85
2018-09-28T01:01:32.452Z,16.95
2018-09-28T01:02:32.427Z,16.93
2018-09-28T01:03:32.398Z,16.95
2018-09-28T01:04:32.370Z,16.95
2018-09-28T01:05:32.346Z,16.93
2018-09-28T01:06:32.319Z,16.93
2018-09-28T01:07:32.292Z,16.89
2018-09-28T01:08:32.265Z,16.92
2018-09-28T01:09:32.240Z,16.92
2018-09-28T01:10:32.213Z,16.98
2018-09-28T01:11:32.185Z,16.86
2018-09-28T01:12:32.159Z,16.83
2018-09-28T01:13:32.132Z,16.75
2018-09-28T01:14:32.105Z,16.58
2018-09-28T01:15:32.080Z,16.33
2018-09-28T01:16:32.052Z,16.14
2018-09-28T01:17:32.026Z,16.09
2018-09-28T01:18:31.999Z,15.96
2018-09-28T01:19:31.971Z,16.06
2018-09-28T01:20:31.948Z,16.03
2018-09-28T01:21:31.919Z,15.92
2018-09-28T01:22:31.892Z,15.92
2018-09-28T01:23:31.865Z,15.92
2018-09-28T01:24:31.838Z,15.99
2018-09-28T01:25:31.812Z,15.97
2018-09-28T01:26:31.786Z,15.94
2018-09-28T01:27:31.757Z,15.86
2018-09-28T01:28:31.735Z,15.84
2018-09-28T01:29:31.706Z,15.88
2018-09-28T01:30:31.676Z,15.92
2018-09-28T01:31:31.650Z,15.92
2018-09-28T01:32:31.623Z,15.89
2018-09-28T01:33:31.594Z,15.94
2018-09-28T01:34:31.568Z,15.88
2018-09-28T01:35:31.542Z,15.92
2018-09-28T01:36:31.515Z,15.92
2018-09-28T01:37:31.488Z,15.93
2018-09-28T01:38:31.460Z,15.94
2018-09-28T01:39:31.435Z,15.82
2018-09-28T01:40:31.404Z,15.82
2018-09-28T01:41:31.378Z,15.84
2018-09-28T01:42:31.352Z,15.84
2018-09-28T01:43:31.322Z,15.86
2018-09-28T01:44:31.296Z,15.67
2018-09-28T01:45:31.269Z,15.70
2018-09-28T01:46:31.243Z,15.66
2018-09-28T01:47:31.214Z,15.64
2018-09-28T01:48:31.187Z,15.63
2018-09-28T01:49:31.162Z,15.70
2018-09-28T01:50:31.133Z,15.59
2018-09-28T01:51:31.106Z,15.64
2018-09-28T01:52:31.079Z,15.49
2018-09-28T01:53:31.053Z,15.59
2018-09-28T01:54:31.025Z,15.67
2018-09-28T01:55:30.997Z,15.66
2018-09-28T01:56:30.971Z,15.67
2018-09-28T01:57:30.943Z,15.57
2018-09-28T01:58:30.916Z,15.60
2018-09-28T01:59:30.889Z,15.57
2018-09-28T02:00:30.862Z,15.56
2018-09-28T02:01:30.835Z,15.59
2018-09-28T02:02:30.806Z,15.60
2018-09-28T02:03:30.779Z,15.64
2018-09-28T02:04:30.751Z,15.57
2018-09-28T02:05:30.724Z,15.63
2018-09-28T02:06:30.698Z,15.63
2018-09-28T02:07:30.669Z,15.67
2018-09-28T02:08:30.646Z,15.60
2018-09-28T02:09:30.613Z,15.72
2018-09-28T02:10:30.589Z,15.64
2018-09-28T02:11:30.560Z,15.63
2018-09-28T02:12:30.589Z,15.64
2018-09-28T02:13:30.506Z,15.63
2018-09-28T02:14:30.478Z,15.70
2018-09-28T02:15:30.451Z,15.64
2018-09-28T02:16:30.423Z,15.63
2018-09-28T02:17:30.413Z,15.64
2018-09-28T02:18:30.369Z,15.72
2018-09-28T02:19:30.343Z,15.60
2018-09-28T02:20:30.314Z,15.51
2018-09-28T02:21:30.287Z,15.43
2018-09-28T02:22:30.261Z,15.45
2018-09-28T02:23:30.232Z,15.33
2018-09-28T02:24:30.205Z,15.21
2018-09-28T02:25:30.177Z,15.13
2018-09-28T02:26:30.151Z,15.02
2018-09-28T02:27:30.122Z,14.90
2018-09-28T02:28:30.096Z,14.88
2018-09-28T02:29:30.069Z,14.90
2018-09-28T02:30:30.041Z,14.74
2018-09-28T02:31:30.013Z,14.78
2018-09-28T02:32:29.987Z,14.80
2018-09-28T02:33:29.958Z,14.69
2018-09-28T02:34:29.931Z,14.72
2018-09-28T02:35:29.903Z,14.72
2018-09-28T02:36:29.874Z,14.74
2018-09-28T02:37:29.848Z,14.74
2018-09-28T02:38:29.818Z,14.84
2018-09-28T02:39:29.791Z,14.84
2018-09-28T02:40:29.763Z,14.78
2018-09-28T02:41:29.735Z,14.80
2018-09-28T02:42:29.710Z,14.80
2018-09-28T02:43:29.691Z,14.81
2018-09-28T02:44:29.652Z,14.75
2018-09-28T02:45:29.625Z,14.84
2018-09-28T02:46:29.597Z,14.72
2018-09-28T02:47:29.570Z,14.65
2018-09-28T02:48:29.541Z,14.67
2018-09-28T02:49:29.513Z,14.67
2018-09-28T02:50:29.483Z,14.64
2018-09-28T02:51:29.456Z,14.60
2018-09-28T02:52:29.428Z,14.56
2018-09-28T02:53:29.401Z,14.52
2018-09-28T02:54:29.372Z,14.52
2018-09-28T02:55:29.345Z,14.49
2018-09-28T02:56:30.231Z,14.50
2018-09-28T02:57:29.290Z,14.47
2018-09-28T02:58:30.232Z,14.35
2018-09-28T02:59:29.234Z,14.29
2018-09-28T03:00:29.205Z,14.37
2018-09-28T03:01:29.183Z,14.32
2018-09-28T03:02:29.151Z,14.28
2018-09-28T03:03:29.123Z,14.28
2018-09-28T03:04:29.093Z,14.28
2018-09-28T03:05:29.064Z,14.16
2018-09-28T03:06:29.080Z,14.19
2018-09-28T03:07:29.008Z,14.16
2018-09-28T03:08:28.980Z,14.20
2018-09-28T03:09:28.953Z,14.19
2018-09-28T03:10:28.924Z,14.19
2018-09-28T03:11:28.896Z,14.16
2018-09-28T03:12:28.874Z,14.24
2018-09-28T03:13:28.840Z,14.27
2018-09-28T03:14:28.812Z,14.19
2018-09-28T03:15:28.782Z,14.25
2018-09-28T03:16:29.741Z,14.21
2018-09-28T03:17:28.727Z,14.12
2018-09-28T03:18:28.699Z,13.99
2018-09-28T03:19:28.670Z,14.13
2018-09-28T03:20:28.644Z,14.12
2018-09-28T03:21:28.615Z,14.09
2018-09-28T03:22:28.586Z,14.09
2018-09-28T03:23:28.558Z,14.07
2018-09-28T03:24:28.530Z,14.01
2018-09-28T03:25:28.505Z,14.02
2018-09-28T03:26:28.475Z,13.98
2018-09-28T03:27:28.445Z,13.95
2018-09-28T03:28:28.417Z,13.92
2018-09-28T03:29:28.390Z,13.87
2018-09-28T03:30:28.361Z,13.79
2018-09-28T03:31:28.342Z,13.92
2018-09-28T03:32:28.303Z,13.88
2018-09-28T03:33:28.275Z,13.80
2018-09-28T03:34:28.246Z,13.81
2018-09-28T03:35:28.221Z,13.79
2018-09-28T03:36:28.188Z,13.73
2018-09-28T03:37:28.161Z,13.70
2018-09-28T03:38:28.134Z,13.58
2018-09-28T03:39:28.104Z,13.58
2018-09-28T03:40:28.084Z,13.55
2018-09-28T03:41:28.048Z,13.56
2018-09-28T03:42:28.019Z,13.51
2018-09-28T03:43:27.989Z,13.47
2018-09-28T03:44:27.960Z,13.47
2018-09-28T03:45:27.931Z,13.44
2018-09-28T03:46:27.903Z,13.46
2018-09-28T03:47:27.874Z,13.37
2018-09-28T03:48:27.845Z,13.33
2018-09-28T03:49:27.816Z,13.25
2018-09-28T03:50:27.789Z,13.30
2018-09-28T03:51:27.768Z,13.22
2018-09-28T03:52:27.730Z,13.25
2018-09-28T03:53:27.701Z,13.40
2018-09-28T03:54:27.672Z,13.29
2018-09-28T03:55:27.642Z,13.24
2018-09-28T03:56:27.616Z,13.14
2018-09-28T03:57:27.588Z,13.04
2018-09-28T03:58:27.556Z,13.06
2018-09-28T03:59:27.528Z,13.06
2018-09-28T04:00:27.498Z,13.07
2018-09-28T04:01:27.469Z,13.07
2018-09-28T04:02:27.440Z,13.06
2018-09-28T04:03:27.411Z,13.04
2018-09-28T04:04:27.383Z,13.04
2018-09-28T04:05:27.354Z,12.97
2018-09-28T04:06:27.328Z,13.07
2018-09-28T04:07:27.295Z,12.92
2018-09-28T04:08:27.262Z,12.88
2018-09-28T04:09:27.240Z,12.93
2018-09-28T04:10:27.207Z,13.04
2018-09-28T04:11:27.178Z,12.95
2018-09-28T04:12:27.149Z,12.85
2018-09-28T04:13:27.120Z,12.95
2018-09-28T04:14:27.091Z,12.96
2018-09-28T04:15:27.063Z,12.85
2018-09-28T04:16:27.034Z,12.85
2018-09-28T04:17:27.004Z,12.89
2018-09-28T04:18:26.976Z,12.85
2018-09-28T04:19:26.945Z,12.78
2018-09-28T04:20:26.916Z,12.81
2018-09-28T04:21:26.888Z,12.74
2018-09-28T04:22:26.858Z,12.84
2018-09-28T04:23:26.827Z,12.79
2018-09-28T04:24:26.799Z,12.81
2018-09-28T04:25:26.770Z,12.92
2018-09-28T04:26:26.742Z,12.95
2018-09-28T04:27:26.712Z,12.82
2018-09-28T04:28:26.683Z,12.78
2018-09-28T04:29:26.656Z,12.87
2018-09-28T04:30:26.625Z,12.81
2018-09-28T04:31:26.594Z,12.70
2018-09-28T04:32:26.566Z,12.85
2018-09-28T04:33:26.538Z,12.89
2018-09-28T04:34:26.509Z,12.81
2018-09-28T04:35:26.478Z,12.78
2018-09-28T04:36:26.448Z,12.66
2018-09-28T04:37:26.421Z,12.78
2018-09-28T04:38:26.392Z,12.77
2018-09-28T04:39:26.370Z,12.71
2018-09-28T04:40:26.331Z,12.64
2018-09-28T04:41:26.306Z,12.69
2018-09-28T04:42:26.274Z,12.79
2018-09-28T04:43:26.246Z,12.75
2018-09-28T04:44:26.215Z,12.78
2018-09-28T04:45:26.230Z,12.71
2018-09-28T04:46:26.160Z,12.67
2018-09-28T04:47:26.127Z,12.81
2018-09-28T04:48:26.098Z,12.87
2018-09-28T04:49:26.069Z,12.70
2018-09-28T04:50:26.041Z,12.79
2018-09-28T04:51:26.010Z,12.87
2018-09-28T04:52:25.982Z,12.77
2018-09-28T04:53:26.751Z,12.67
2018-09-28T04:54:25.923Z,12.71
2018-09-28T04:55:25.894Z,12.69
2018-09-28T04:56:25.865Z,12.66
2018-09-28T04:57:25.835Z,12.69
2018-09-28T04:58:25.806Z,12.70
2018-09-28T04:59:25.777Z,12.66
2018-09-28T05:00:33.166Z,12.70
2018-09-28T05:02:18.579Z,12.67
2018-09-28T05:03:18.520Z,12.64
2018-09-28T05:05:11.354Z,12.64
2018-09-28T05:06:11.297Z,12.63
2018-09-28T05:08:04.102Z,12.66
2018-09-28T05:09:04.068Z,12.63
2018-09-28T05:10:04.041Z,12.69
2018-09-28T05:11:04.009Z,12.62
2018-09-28T05:12:03.981Z,12.66
2018-09-28T05:13:04.019Z,12.64
2018-09-28T05:14:03.921Z,12.67
2018-09-28T05:15:03.891Z,12.69
2018-09-28T05:16:03.864Z,12.60
2018-09-28T05:17:03.834Z,12.48
2018-09-28T05:18:03.805Z,12.45
2018-09-28T05:19:03.774Z,12.44
2018-09-28T05:20:03.749Z,12.62
2018-09-28T05:21:03.716Z,12.64
2018-09-28T05:22:03.690Z,12.63
2018-09-28T05:23:03.657Z,12.63
2018-09-28T05:24:03.629Z,12.48
2018-09-28T05:25:03.600Z,12.48
2018-09-28T05:26:03.570Z,12.49
2018-09-28T05:27:03.548Z,12.49
2018-09-28T05:28:03.512Z,12.45
2018-09-28T05:29:03.483Z,12.51
2018-09-28T05:30:03.453Z,12.46
2018-09-28T05:31:03.448Z,12.38
2018-09-28T05:32:03.422Z,12.44
2018-09-28T05:33:03.412Z,12.44
2018-09-28T05:34:03.340Z,12.52
2018-09-28T05:35:03.309Z,12.46
2018-09-28T05:36:03.275Z,12.37
2018-09-28T05:37:03.249Z,12.51
2018-09-28T05:38:03.218Z,12.49
2018-09-28T05:39:03.192Z,12.44
2018-09-28T05:40:03.160Z,12.39
2018-09-28T05:41:03.182Z,12.49
2018-09-28T05:42:03.107Z,12.48
2018-09-28T05:43:03.073Z,12.33
2018-09-28T05:44:03.705Z,12.31
2018-09-28T05:45:03.014Z,12.24
2018-09-28T05:46:02.989Z,12.26
2018-09-28T05:47:02.955Z,12.21
2018-09-28T05:48:02.925Z,12.19
2018-09-28T05:49:02.896Z,12.16
2018-09-28T05:50:02.868Z,12.19
2018-09-28T05:51:02.835Z,12.16
2018-09-28T05:52:02.810Z,12.05
2018-09-28T05:53:02.773Z,12.08
2018-09-28T05:54:02.748Z,12.08
2018-09-28T05:55:02.717Z,12.05
2018-09-28T05:56:02.688Z,11.99
2018-09-28T05:57:02.659Z,11.90
2018-09-28T05:58:02.629Z,11.94
2018-09-28T05:59:02.602Z,11.87
2018-09-28T06:00:02.578Z,12.05
2018-09-28T06:01:02.542Z,11.97
2018-09-28T06:02:02.540Z,12.01
2018-09-28T06:03:02.483Z,11.93
2018-09-28T06:04:02.503Z,11.99
2018-09-28T06:05:02.426Z,11.89
2018-09-28T06:06:02.400Z,11.89
2018-09-28T06:07:02.365Z,11.93
2018-09-28T06:08:02.334Z,11.89
2018-09-28T06:09:02.304Z,12.08
2018-09-28T06:10:02.281Z,12.01
2018-09-28T06:11:02.248Z,12.06
2018-09-28T06:12:02.214Z,11.97
2018-09-28T06:13:02.188Z,12.05
2018-09-28T06:14:02.158Z,12.11
2018-09-28T06:15:02.128Z,12.21
2018-09-28T06:16:02.100Z,12.21
2018-09-28T06:17:02.072Z,12.20
2018-09-28T06:18:02.090Z,12.24
2018-09-28T06:19:02.037Z,12.16
2018-09-28T06:20:01.995Z,12.23
2018-09-28T06:21:01.949Z,12.21
2018-09-28T06:22:01.920Z,12.26
2018-09-28T06:23:01.891Z,12.16
2018-09-28T06:24:01.872Z,12.21
2018-09-28T06:25:01.836Z,12.29
2018-09-28T06:26:01.808Z,12.19
2018-09-28T06:27:01.772Z,12.34
2018-09-28T06:28:01.767Z,12.27
2018-09-28T06:29:01.715Z,12.37
2018-09-28T06:30:01.726Z,12.31
2018-09-28T06:31:01.657Z,12.30
2018-09-28T06:32:01.626Z,12.31
2018-09-28T06:33:01.600Z,12.33
2018-09-28T06:34:01.567Z,12.34
2018-09-28T06:35:01.566Z,12.34
2018-09-28T06:36:01.580Z,12.41
2018-09-28T06:37:01.481Z,12.45
2018-09-28T06:38:01.453Z,12.38
2018-09-28T06:39:01.429Z,12.46
2018-09-28T06:40:01.396Z,12.45
2018-09-28T06:41:01.364Z,12.46
2018-09-28T06:42:01.449Z,12.44
2018-09-28T06:43:01.305Z,12.49
2018-09-28T06:44:01.277Z,12.54
2018-09-28T06:45:01.249Z,12.54
2018-09-28T06:46:01.227Z,12.49
2018-09-28T06:47:01.184Z,12.51
2018-09-28T06:48:01.212Z,12.46
2018-09-28T06:49:01.130Z,12.44
2018-09-28T06:50:01.101Z,12.46
2018-09-28T06:51:01.077Z,12.51
2018-09-28T06:52:01.714Z,12.54
2018-09-28T06:53:01.013Z,12.57
2018-09-28T06:54:00.995Z,12.64
2018-09-28T06:55:00.963Z,12.64
2018-09-28T06:56:00.931Z,12.64
2018-09-28T06:57:01.714Z,12.59
2018-09-28T06:58:00.878Z,12.51
2018-09-28T06:59:00.841Z,12.62
2018-09-28T07:00:00.906Z,12.59
2018-09-28T07:01:00.780Z,12.63
2018-09-28T07:02:00.753Z,12.66
2018-09-28T07:03:00.726Z,12.67
2018-09-28T07:04:00.751Z,12.66
2018-09-28T07:05:00.666Z,12.62
2018-09-28T07:06:00.704Z,12.66
2018-09-28T07:07:00.609Z,12.70
2018-09-28T07:08:00.580Z,12.67
2018-09-28T07:09:00.550Z,12.63
2018-09-28T07:10:00.522Z,12.74
2018-09-28T07:11:00.494Z,12.71
2018-09-28T07:12:00.487Z,12.88
2018-09-28T07:13:00.436Z,12.88
2018-09-28T07:14:00.405Z,13.04
2018-09-28T07:15:00.378Z,12.99
2018-09-28T07:16:00.350Z,12.88
2018-09-28T07:17:00.321Z,13.06
2018-09-28T07:18:00.424Z,13.06
2018-09-28T07:19:00.264Z,13.09
2018-09-28T07:20:00.235Z,13.15
2018-09-28T07:21:00.219Z,13.17
2018-09-28T07:22:00.179Z,13.12
2018-09-28T07:23:00.720Z,13.09
2018-09-28T07:24:00.180Z,13.09
2018-09-28T07:25:00.193Z,12.95
2018-09-28T07:26:00.061Z,13.02
2018-09-28T07:27:00.034Z,13.14
2018-09-28T07:28:00.003Z,13.14
2018-09-28T07:28:59.980Z,13.06
2018-09-28T07:30:00.046Z,13.15
2018-09-28T07:30:59.937Z,13.14
2018-09-28T07:31:59.892Z,13.11
2018-09-28T07:32:59.865Z,13.11
2018-09-28T07:33:59.840Z,13.12
2018-09-28T07:34:59.806Z,13.27
2018-09-28T07:35:59.825Z,13.25
2018-09-28T07:37:00.799Z,13.49
2018-09-28T07:37:59.720Z,13.33
2018-09-28T07:39:00.218Z,13.32
2018-09-28T07:40:00.222Z,13.38
2018-09-28T07:41:00.223Z,13.32
2018-09-28T07:41:59.672Z,13.43
2018-09-28T07:42:59.578Z,13.44
2018-09-28T07:43:59.555Z,13.52
2018-09-28T07:44:59.521Z,13.55
2018-09-28T07:45:59.493Z,13.65
2018-09-28T07:46:59.468Z,13.58
2018-09-28T07:48:00.264Z,13.56
2018-09-28T07:48:59.426Z,13.54
2018-09-28T07:49:59.377Z,13.54
2018-09-28T07:50:59.357Z,13.58
2018-09-28T07:51:59.321Z,13.63
2018-09-28T07:52:59.295Z,13.69
2018-09-28T07:53:59.264Z,13.56
2018-09-28T07:54:59.242Z,13.56
2018-09-28T07:55:59.214Z,13.38
2018-09-28T07:56:59.183Z,13.32
2018-09-28T07:57:59.156Z,13.44
2018-09-28T07:58:59.126Z,13.51
2018-09-28T07:59:59.118Z,13.55
2018-09-28T08:00:59.068Z,13.51
2018-09-28T08:01:59.039Z,13.54
2018-09-28T08:02:59.015Z,13.59
2018-09-28T08:03:59.053Z,13.67
2018-09-28T08:05:00.727Z,13.69
2018-09-28T08:05:58.933Z,13.61
2018-09-28T08:06:58.902Z,13.67
2018-09-28T08:07:58.874Z,13.58
2018-09-28T08:08:58.849Z,13.55
2018-09-28T08:09:58.816Z,13.62
2018-09-28T08:10:58.788Z,13.67
2018-09-28T08:11:58.765Z,13.69
2018-09-28T08:12:58.735Z,13.79
2018-09-28T08:13:58.707Z,13.73
2018-09-28T08:14:58.679Z,13.76
2018-09-28T08:15:58.651Z,13.69
2018-09-28T08:16:58.623Z,13.73
2018-09-28T08:17:58.630Z,13.67
2018-09-28T08:18:58.566Z,13.80
2018-09-28T08:19:58.538Z,13.89
2018-09-28T08:20:58.510Z,13.98
2018-09-28T08:22:00.229Z,13.98
2018-09-28T08:22:59.231Z,13.80
2018-09-28T08:23:58.431Z,13.77
2018-09-28T08:24:58.399Z,13.92
2018-09-28T08:25:58.368Z,13.77
2018-09-28T08:26:58.347Z,13.79
2018-09-28T08:27:58.332Z,13.80
2018-09-28T08:28:58.285Z,13.79
2018-09-28T08:29:58.264Z,13.83
2018-09-28T08:30:58.733Z,13.81
2018-09-28T08:31:58.197Z,13.80
2018-09-28T08:32:58.174Z,13.91
2018-09-28T08:33:58.158Z,13.89
2018-09-28T08:34:58.119Z,14.01
2018-09-28T08:35:58.093Z,14.06
2018-09-28T08:36:58.081Z,14.14
2018-09-28T08:37:58.037Z,14.24
2018-09-28T08:38:58.009Z,14.14
2018-09-28T08:39:57.983Z,14.24
2018-09-28T08:40:57.955Z,14.21
2018-09-28T08:41:57.985Z,14.29
2018-09-28T08:42:57.907Z,14.35
2018-09-28T08:43:57.907Z,14.35
2018-09-28T08:44:57.840Z,14.21
2018-09-28T08:45:57.820Z,14.37
2018-09-28T08:46:57.788Z,14.28
2018-09-28T08:47:57.762Z,14.24
2018-09-28T08:48:57.736Z,14.35
2018-09-28T08:49:57.713Z,14.47
2018-09-28T08:50:57.681Z,14.29
2018-09-28T08:51:57.654Z,14.25
2018-09-28T08:52:57.624Z,14.52
2018-09-28T08:53:57.603Z,14.43
2018-09-28T08:54:57.576Z,14.50
2018-09-28T08:55:57.545Z,14.54
2018-09-28T08:56:57.517Z,14.81
2018-09-28T08:57:57.582Z,14.83
2018-09-28T08:58:57.463Z,14.86
2018-09-28T08:59:57.438Z,14.61
2018-09-28T09:00:57.434Z,14.61
2018-09-28T09:01:57.399Z,14.54
2018-09-28T09:02:57.357Z,14.37
2018-09-28T09:03:57.329Z,14.54
2018-09-28T09:04:57.302Z,14.54
2018-09-28T09:05:57.276Z,14.38
2018-09-28T09:06:57.247Z,14.38
2018-09-28T09:07:57.217Z,14.25
2018-09-28T09:08:57.199Z,14.25
2018-09-28T09:09:57.166Z,14.38
2018-09-28T09:10:57.138Z,14.42
2018-09-28T09:11:57.113Z,14.54
2018-09-28T09:12:57.088Z,14.68
2018-09-28T09:13:57.059Z,14.60
2018-09-28T09:14:57.032Z,14.64
2018-09-28T09:15:57.006Z,14.78
2018-09-28T09:16:56.978Z,14.72
2018-09-28T09:17:57.022Z,14.57
2018-09-28T09:18:56.919Z,14.65
2018-09-28T09:19:56.906Z,14.69
2018-09-28T09:20:56.872Z,14.64
2018-09-28T09:21:56.845Z,14.60
2018-09-28T09:22:56.816Z,14.52
2018-09-28T09:23:56.806Z,14.50
2018-09-28T09:24:56.764Z,14.65
2018-09-28T09:25:56.736Z,14.91
2018-09-28T09:26:56.708Z,14.78
2018-09-28T09:27:56.685Z,14.80
2018-09-28T09:28:56.656Z,14.81
2018-09-28T09:29:56.637Z,14.39
2018-09-28T09:30:56.601Z,14.31
2018-09-28T09:31:56.575Z,14.31
2018-09-28T09:32:56.550Z,14.39
2018-09-28T09:33:56.522Z,14.31
2018-09-28T09:34:56.495Z,14.35
2018-09-28T09:35:56.471Z,14.37
2018-09-28T09:36:56.435Z,14.54
2018-09-28T09:37:56.426Z,14.53
2018-09-28T09:38:56.389Z,14.42
2018-09-28T09:39:56.360Z,14.47
2018-09-28T09:40:56.333Z,14.54
2018-09-28T09:41:56.310Z,14.71
2018-09-28T09:42:56.279Z,14.61
2018-09-28T09:43:56.252Z,14.67
2018-09-28T09:44:56.227Z,14.75
2018-09-28T09:45:56.200Z,14.98
2018-09-28T09:46:56.174Z,15.19
2018-09-28T09:47:56.188Z,14.99
2018-09-28T09:48:56.120Z,14.83
2018-09-28T09:49:56.093Z,14.80
2018-09-28T09:50:56.065Z,15.01
2018-09-28T09:51:56.039Z,14.86
2018-09-28T09:52:56.012Z,15.12
2018-09-28T09:53:55.989Z,15.28
2018-09-28T09:54:55.962Z,15.52
2018-09-28T09:55:55.932Z,15.52
2018-09-28T09:56:55.905Z,15.26
2018-09-28T09:57:56.017Z,14.93
2018-09-28T09:58:55.857Z,14.95
2018-09-28T09:59:56.747Z,14.90
2018-09-28T10:00:55.801Z,15.02
2018-09-28T10:01:55.775Z,15.15
2018-09-28T10:02:55.747Z,15.36
2018-09-28T10:03:55.720Z,15.12
2018-09-28T10:04:55.694Z,15.03
2018-09-28T10:05:55.668Z,15.13
2018-09-28T10:06:55.643Z,14.91
2018-09-28T10:07:55.616Z,14.93
2018-09-28T10:08:55.589Z,14.80
2018-09-28T10:09:55.562Z,14.81
2018-09-28T10:10:55.534Z,14.95
2018-09-28T10:11:55.508Z,14.98
2018-09-28T10:12:55.481Z,15.15
2018-09-28T10:13:55.457Z,15.31
2018-09-28T10:14:55.429Z,15.45
2018-09-28T10:15:55.402Z,15.39
2018-09-28T10:16:55.376Z,15.45
2018-09-28T10:17:55.415Z,15.39
2018-09-28T10:18:55.325Z,15.63
2018-09-28T10:19:55.295Z,15.78
2018-09-28T10:20:55.271Z,15.78
2018-09-28T10:21:55.245Z,15.63
2018-09-28T10:22:55.220Z,15.56
2018-09-28T10:23:55.194Z,15.57
2018-09-28T10:24:55.168Z,15.33
2018-09-28T10:25:55.144Z,15.45
2018-09-28T10:26:55.153Z,15.63
2018-09-28T10:27:55.187Z,15.45
2018-09-28T10:28:55.063Z,15.42
2018-09-28T10:29:55.034Z,15.51
2018-09-28T10:30:55.015Z,15.46
2018-09-28T10:31:54.989Z,15.30
2018-09-28T10:32:54.962Z,15.30
2018-09-28T10:33:54.940Z,15.27
2018-09-28T10:34:54.911Z,15.28
2018-09-28T10:35:54.883Z,15.39
2018-09-28T10:36:54.860Z,15.27
2018-09-28T10:37:54.833Z,15.38
2018-09-28T10:38:54.808Z,15.38
2018-09-28T10:39:54.782Z,15.78
2018-09-28T10:40:54.887Z,15.41
2018-09-28T10:41:54.730Z,15.48
2018-09-28T10:42:54.705Z,15.52
2018-09-28T10:43:54.676Z,15.48
2018-09-28T10:44:54.652Z,15.45
2018-09-28T10:45:54.628Z,15.54
2018-09-28T10:46:54.603Z,15.42
2018-09-28T10:47:54.581Z,15.33
2018-09-28T10:48:54.597Z,15.28
2018-09-28T10:49:54.523Z,15.12
2018-09-28T10:50:54.530Z,14.95
2018-09-28T10:51:54.565Z,14.75
2018-09-28T10:52:54.545Z,14.86
2018-09-28T10:53:54.420Z,15.02
2018-09-28T10:54:54.395Z,15.05
2018-09-28T10:55:54.371Z,15.15
2018-09-28T10:56:54.342Z,15.31
2018-09-28T10:57:54.317Z,15.42
2018-09-28T10:58:54.371Z,15.35
2018-09-28T10:59:54.268Z,15.38
2018-09-28T11:00:54.239Z,15.51
2018-09-28T11:01:54.212Z,15.39
2018-09-28T11:02:54.233Z,15.24
2018-09-28T11:03:54.161Z,15.31
2018-09-28T11:04:54.132Z,15.38
2018-09-28T11:05:54.109Z,15.30
2018-09-28T11:06:54.091Z,15.26
2018-09-28T11:07:54.112Z,15.17
2018-09-28T11:08:54.075Z,15.06
2018-09-28T11:09:54.003Z,15.05
2018-09-28T11:10:53.978Z,15.33
2018-09-28T11:11:53.950Z,15.43
2018-09-28T11:12:53.923Z,15.39
2018-09-28T11:13:53.901Z,15.38
2018-09-28T11:14:53.871Z,15.35
2018-09-28T11:15:53.841Z,15.46
2018-09-28T11:16:53.817Z,15.45
2018-09-28T11:17:53.790Z,15.39
2018-09-28T11:18:54.293Z,15.54
2018-09-28T11:19:53.739Z,15.42
2018-09-28T11:20:53.738Z,15.38
2018-09-28T11:21:53.687Z,15.33
2018-09-28T11:22:53.664Z,15.41
2018-09-28T11:23:53.638Z,15.27
2018-09-28T11:24:53.607Z,14.98
2018-09-28T11:25:53.582Z,15.20
2018-09-28T11:26:53.557Z,14.98
2018-09-28T11:27:53.529Z,15.09
2018-09-28T11:28:53.502Z,15.08
2018-09-28T11:29:53.478Z,15.09
2018-09-28T11:30:53.446Z,15.03
2018-09-28T11:31:53.427Z,15.06
2018-09-28T11:32:54.268Z,15.11
2018-09-28T11:33:54.266Z,15.27
2018-09-28T11:34:53.343Z,15.38
2018-09-28T11:35:53.317Z,15.61
2018-09-28T11:36:53.291Z,15.43
2018-09-28T11:37:53.342Z,15.33
2018-09-28T11:38:53.236Z,15.23
2018-09-28T11:39:53.213Z,15.52
2018-09-28T11:40:53.182Z,15.61
2018-09-28T11:41:53.157Z,15.72
2018-09-28T11:42:53.131Z,15.54
2018-09-28T11:43:53.105Z,15.42
2018-09-28T11:44:53.079Z,15.41
2018-09-28T11:45:53.118Z,15.41
2018-09-28T11:46:53.025Z,15.54
2018-09-28T11:47:52.998Z,15.64
2018-09-28T11:48:52.972Z,15.61
2018-09-28T11:49:52.946Z,15.72
2018-09-28T11:50:52.919Z,15.79
2018-09-28T11:51:52.895Z,15.64
2018-09-28T11:52:52.866Z,15.41
2018-09-28T11:53:52.840Z,15.27
2018-09-28T11:54:52.818Z,15.43
2018-09-28T11:55:52.788Z,15.63
2018-09-28T11:56:52.763Z,15.85
2018-09-28T11:57:52.737Z,15.92
2018-09-28T11:58:52.708Z,15.93
2018-09-28T11:59:52.722Z,15.59
2018-09-28T12:00:52.659Z,15.45
2018-09-28T12:01:52.632Z,15.70
2018-09-28T12:02:52.612Z,15.64
2018-09-28T12:03:52.631Z,15.49
2018-09-28T12:04:52.555Z,15.54
2018-09-28T12:05:52.527Z,15.70
2018-09-28T12:06:52.595Z,15.72
2018-09-28T12:07:52.476Z,15.94
2018-09-28T12:08:52.449Z,15.84
2018-09-28T12:09:52.422Z,15.61
2018-09-28T12:10:52.424Z,15.68
2018-09-28T12:11:52.371Z,15.63
2018-09-28T12:12:52.347Z,15.63
2018-09-28T12:13:52.318Z,15.63
2018-09-28T12:14:52.294Z,15.86
2018-09-28T12:15:52.270Z,15.52
2018-09-28T12:16:52.242Z,15.70
2018-09-28T12:17:52.217Z,15.60
2018-09-28T12:18:52.296Z,15.84
2018-09-28T12:19:52.163Z,15.86
2018-09-28T12:20:52.136Z,15.74
2018-09-28T12:21:52.778Z,15.68
2018-09-28T12:22:52.087Z,15.63
2018-09-28T12:23:52.059Z,15.49
2018-09-28T12:24:52.157Z,15.42
2018-09-28T12:25:52.006Z,15.26
2018-09-28T12:26:51.980Z,15.21
2018-09-28T12:27:52.059Z,15.13
2018-09-28T12:28:51.929Z,15.13
2018-09-28T12:29:51.903Z,15.02
2018-09-28T12:30:51.894Z,15.05
2018-09-28T12:31:51.852Z,14.98
2018-09-28T12:32:51.824Z,15.05
2018-09-28T12:33:51.800Z,15.09
2018-09-28T12:34:51.771Z,15.19
2018-09-28T12:35:51.746Z,15.24
2018-09-28T12:36:51.774Z,15.09
2018-09-28T12:37:51.691Z,15.17
2018-09-28T12:38:51.670Z,15.02
2018-09-28T12:39:51.651Z,15.05
2018-09-28T12:40:51.613Z,15.11
2018-09-28T12:41:51.588Z,15.06
2018-09-28T12:42:51.626Z,15.02
2018-09-28T12:43:51.533Z,15.03
2018-09-28T12:44:51.590Z,14.98
2018-09-28T12:45:51.479Z,14.95
2018-09-28T12:46:51.452Z,15.08
2018-09-28T12:47:51.429Z,15.02
2018-09-28T12:48:51.426Z,15.15
2018-09-28T12:49:51.370Z,15.36
2018-09-28T12:50:51.346Z,15.28
2018-09-28T12:51:51.319Z,15.39
2018-09-28T12:52:51.291Z,15.39
2018-09-28T12:53:51.263Z,15.19
2018-09-28T12:54:51.260Z,15.05